Time;durP1;ratioP1;P1;durP2;ratioP2;P2;SDS_P1;SDS_P2;PMS_P1;PMS_P2;Temp;Humidity;BMP_temperature;BMP_pressure;BME280_temperature;BME280_humidity;BME280_pressure;Samples;Min_cycle;Max_cycle;Signal;HPM_P1;HPM_P2
2023/02/16 17:24:13;;;;;;;41.40;23.25;;;9.40;99.90;;;;;;5108068;27;20316;-61
2023/02/16 17:26:39;;;;;;;42.05;23.60;;;9.30;99.90;;;;;;5109028;28;20488;-60
2023/02/16 17:29:06;;;;;;;46.40;24.38;;;9.40;99.90;;;;;;5098399;28;20043;-60
2023/02/16 17:31:32;;;;;;;38.22;22.50;;;9.50;99.90;;;;;;5105934;28;20024;-60
2023/02/16 17:33:58;;;;;;;48.28;26.02;;;9.50;99.90;;;;;;5109003;28;20016;-61
2023/02/16 17:36:26;;;;;;;41.15;25.27;;;9.60;99.90;;;;;;5108717;28;20358;-61
2023/02/16 17:38:52;;;;;;;45.72;25.55;;;9.60;99.90;;;;;;5107009;28;20016;-60
2023/02/16 17:41:24;;;;;;;52.03;27.25;;;9.70;99.90;;;;;;5109402;28;20027;-60
2023/02/16 17:43:50;;;;;;;50.53;26.73;;;9.70;99.90;;;;;;5109262;28;20043;-60
2023/02/16 17:46:18;;;;;;;52.45;26.95;;;9.80;99.90;;;;;;5107612;28;20114;-60
2023/02/16 17:48:44;;;;;;;51.65;26.65;;;9.80;99.90;;;;;;5108897;28;20027;-61
2023/02/16 17:51:20;;;;;;;52.35;25.10;;;9.90;99.90;;;;;;5108593;28;20027;-61
2023/02/16 17:53:46;;;;;;;45.88;25.67;;;9.90;99.90;;;;;;5107978;28;20024;-60
2023/02/16 17:56:13;;;;;;;49.25;25.65;;;9.90;99.90;;;;;;5108475;28;20024;-59
2023/02/16 17:58:39;;;;;;;49.85;27.55;;;9.90;99.90;;;;;;5108245;28;20057;-60
2023/02/16 18:01:05;;;;;;;52.85;27.73;;;9.90;99.90;;;;;;5108587;28;20027;-61
2023/02/16 18:03:31;;;;;;;48.63;26.77;;;9.90;99.90;;;;;;5108119;28;20040;-61
2023/02/16 18:05:56;;;;;;;49.42;26.35;;;9.90;99.90;;;;;;5108125;28;20019;-61
2023/02/16 18:08:22;;;;;;;56.22;30.30;;;9.90;99.90;;;;;;5107774;28;20309;-60
2023/02/16 18:10:50;;;;;;;58.33;30.80;;;9.90;99.90;;;;;;5108055;28;20022;-61
2023/02/16 18:13:16;;;;;;;57.10;29.75;;;9.90;99.90;;;;;;5107393;28;20024;-60
2023/02/16 18:15:46;;;;;;;54.03;27.50;;;9.90;99.90;;;;;;5109970;28;20023;-60
2023/02/16 18:18:14;;;;;;;54.00;29.95;;;10.00;99.90;;;;;;5087318;28;20033;-60
2023/02/16 18:20:39;;;;;;;53.65;29.55;;;10.00;99.90;;;;;;5093679;28;20008;-56
2023/02/16 18:23:05;;;;;;;50.17;29.25;;;10.00;99.90;;;;;;5107148;28;20518;-61
2023/02/16 18:25:31;;;;;;;49.92;29.35;;;10.00;99.90;;;;;;5108297;28;20537;-60
2023/02/16 18:27:57;;;;;;;58.08;29.58;;;10.00;99.90;;;;;;5107422;28;20105;-61
2023/02/16 18:30:22;;;;;;;51.55;29.50;;;10.00;99.90;;;;;;5106454;28;20042;-61
2023/02/16 18:32:49;;;;;;;53.85;28.58;;;10.00;99.90;;;;;;5107866;28;20024;-60
2023/02/16 18:35:16;;;;;;;55.50;28.15;;;10.00;99.90;;;;;;5094913;28;20106;-61
2023/02/16 18:37:41;;;;;;;47.53;25.95;;;10.00;99.90;;;;;;5096463;28;20024;-61
2023/02/16 18:40:09;;;;;;;55.90;28.35;;;10.00;99.90;;;;;;5093687;28;20024;-61
2023/02/16 18:42:35;;;;;;;49.05;26.02;;;10.00;99.90;;;;;;5104261;28;20036;-61
2023/02/16 18:45:02;;;;;;;48.42;26.40;;;10.00;99.90;;;;;;5114404;28;20020;-61
2023/02/16 18:47:27;;;;;;;48.28;27.55;;;10.00;99.90;;;;;;5110986;28;20047;-59
2023/02/16 18:49:55;;;;;;;50.88;25.92;;;10.00;99.90;;;;;;5108234;28;20084;-61
2023/02/16 18:52:20;;;;;;;47.00;25.33;;;10.00;99.90;;;;;;5072824;28;20013;-61
2023/02/16 18:54:46;;;;;;;51.38;27.00;;;10.00;99.90;;;;;;5088338;28;20032;-61
2023/02/16 18:57:12;;;;;;;50.08;25.85;;;10.00;99.90;;;;;;5093936;28;20032;-61
2023/02/16 18:59:38;;;;;;;45.88;25.35;;;10.00;99.90;;;;;;5104305;28;20014;-61
2023/02/16 19:02:03;;;;;;;45.45;25.33;;;10.00;99.90;;;;;;5113709;28;20042;-60
2023/02/16 19:04:29;;;;;;;50.58;29.08;;;10.00;99.90;;;;;;5089291;28;20396;-61
2023/02/16 19:06:57;;;;;;;49.75;27.52;;;10.00;99.90;;;;;;5080767;28;20044;-61
2023/02/16 19:09:23;;;;;;;52.17;27.13;;;10.00;99.90;;;;;;5107619;28;20073;-60
2023/02/16 19:11:48;;;;;;;45.85;25.98;;;10.00;99.90;;;;;;5112473;28;20028;-60
2023/02/16 19:14:15;;;;;;;48.78;26.20;;;10.00;99.90;;;;;;5113429;28;20428;-60
2023/02/16 19:16:41;;;;;;;53.45;28.27;;;10.00;99.90;;;;;;5111611;28;20019;-61
2023/02/16 19:19:06;;;;;;;49.42;24.88;;;10.00;99.90;;;;;;5113290;28;20024;-61
2023/02/16 19:21:33;;;;;;;46.53;26.02;;;10.00;99.90;;;;;;5113745;28;20049;-61
2023/02/16 19:23:59;;;;;;;45.97;25.88;;;10.00;99.90;;;;;;5109093;28;20150;-60
2023/02/16 19:26:24;;;;;;;42.88;23.95;;;10.00;99.90;;;;;;5113192;28;20432;-61
2023/02/16 19:28:51;;;;;;;45.05;25.55;;;10.00;99.90;;;;;;5111309;28;20098;-61
2023/02/16 19:31:18;;;;;;;45.85;25.45;;;10.00;99.90;;;;;;5112637;28;20039;-61
2023/02/16 19:33:45;;;;;;;43.45;24.33;;;10.00;99.90;;;;;;5113161;28;20016;-60
2023/02/16 19:36:11;;;;;;;47.08;25.17;;;10.00;99.90;;;;;;5112859;28;20076;-59
2023/02/16 19:38:37;;;;;;;45.30;26.60;;;10.00;99.90;;;;;;5112597;28;20090;-61
2023/02/16 19:41:24;;;;;;;49.08;25.75;;;10.00;99.90;;;;;;5112505;28;20085;-60
2023/02/16 19:43:50;;;;;;;51.20;26.30;;;10.00;99.90;;;;;;5111171;28;20433;-61
2023/02/16 19:46:15;;;;;;;46.28;26.25;;;9.90;99.90;;;;;;5111078;28;20119;-61
2023/02/16 19:48:41;;;;;;;49.38;25.48;;;10.00;99.90;;;;;;5113069;28;20102;-61
2023/02/16 19:51:08;;;;;;;52.38;26.33;;;9.90;99.90;;;;;;5112729;28;20088;-61
2023/02/16 19:53:36;;;;;;;47.08;25.85;;;9.90;99.90;;;;;;5110387;28;20043;-60
2023/02/16 19:56:06;;;;;;;47.28;25.13;;;9.90;99.90;;;;;;5112964;28;20461;-61
2023/02/16 19:58:31;;;;;;;45.40;26.67;;;9.90;99.90;;;;;;5112085;28;20027;-62
2023/02/16 20:00:57;;;;;;;48.95;26.73;;;9.90;99.90;;;;;;5111691;28;20028;-62
2023/02/16 20:03:22;;;;;;;45.35;25.30;;;9.90;99.90;;;;;;5112361;28;20028;-62
